sensor_id;sensor_type;location;lat;lon;timestamp;temperature;humidity
10644;DHT22;5370;50.132;8.626;2023-04-05T00:01:26;3.60;56.00
10644;DHT22;5370;50.132;8.626;2023-04-05T00:03:51;3.70;56.10
10644;DHT22;5370;50.132;8.626;2023-04-05T00:06:19;3.60;56.10
10644;DHT22;5370;50.132;8.626;2023-04-05T00:08:46;3.60;56.30
10644;DHT22;5370;50.132;8.626;2023-04-05T00:11:15;3.60;56.40
10644;DHT22;5370;50.132;8.626;2023-04-05T00:13:41;3.60;56.60
10644;DHT22;5370;50.132;8.626;2023-04-05T00:16:06;3.60;56.60
10644;DHT22;5370;50.132;8.626;2023-04-05T00:18:32;3.60;56.70
10644;DHT22;5370;50.132;8.626;2023-04-05T00:20:58;3.60;57.00
10644;DHT22;5370;50.132;8.626;2023-04-05T00:23:24;3.60;57.10
10644;DHT22;5370;50.132;8.626;2023-04-05T00:25:52;3.60;57.20
10644;DHT22;5370;50.132;8.626;2023-04-05T00:28:17;3.60;57.20
10644;DHT22;5370;50.132;8.626;2023-04-05T00:30:43;3.60;57.20
10644;DHT22;5370;50.132;8.626;2023-04-05T00:33:08;3.60;57.40
10644;DHT22;5370;50.132;8.626;2023-04-05T00:35:36;3.60;57.40
10644;DHT22;5370;50.132;8.626;2023-04-05T00:38:01;3.60;57.50
10644;DHT22;5370;50.132;8.626;2023-04-05T00:40:27;3.60;57.70
10644;DHT22;5370;50.132;8.626;2023-04-05T00:42:52;3.50;57.70
10644;DHT22;5370;50.132;8.626;2023-04-05T00:45:18;3.50;57.70
10644;DHT22;5370;50.132;8.626;2023-04-05T00:47:43;3.50;57.70
10644;DHT22;5370;50.132;8.626;2023-04-05T00:50:09;3.50;57.70
10644;DHT22;5370;50.132;8.626;2023-04-05T00:52:36;3.50;57.70
10644;DHT22;5370;50.132;8.626;2023-04-05T00:55:03;3.50;57.70
10644;DHT22;5370;50.132;8.626;2023-04-05T00:57:30;3.50;57.80
10644;DHT22;5370;50.132;8.626;2023-04-05T01:00:00;3.40;57.70
10644;DHT22;5370;50.132;8.626;2023-04-05T01:02:34;3.40;57.90
10644;DHT22;5370;50.132;8.626;2023-04-05T01:05:18;3.40;58.00
10644;DHT22;5370;50.132;8.626;2023-04-05T01:07:53;3.40;58.00
10644;DHT22;5370;50.132;8.626;2023-04-05T01:10:27;3.30;57.90
10644;DHT22;5370;50.132;8.626;2023-04-05T01:13:09;3.30;58.10
10644;DHT22;5370;50.132;8.626;2023-04-05T01:15:35;3.20;58.00
10644;DHT22;5370;50.132;8.626;2023-04-05T01:18:00;3.20;58.20
10644;DHT22;5370;50.132;8.626;2023-04-05T01:20:30;3.10;58.20
10644;DHT22;5370;50.132;8.626;2023-04-05T01:33:47;2.90;58.70
10644;DHT22;5370;50.132;8.626;2023-04-05T01:36:25;2.90;58.80
10644;DHT22;5370;50.132;8.626;2023-04-05T01:38:53;2.80;58.90
10644;DHT22;5370;50.132;8.626;2023-04-05T01:41:20;2.80;59.00
10644;DHT22;5370;50.132;8.626;2023-04-05T01:43:46;2.80;59.10
10644;DHT22;5370;50.132;8.626;2023-04-05T01:46:11;2.70;59.20
10644;DHT22;5370;50.132;8.626;2023-04-05T01:48:37;2.70;59.30
10644;DHT22;5370;50.132;8.626;2023-04-05T01:51:03;2.70;59.50
10644;DHT22;5370;50.132;8.626;2023-04-05T01:53:29;2.60;59.50
10644;DHT22;5370;50.132;8.626;2023-04-05T01:56:01;2.60;59.70
10644;DHT22;5370;50.132;8.626;2023-04-05T01:58:27;2.50;59.90
10644;DHT22;5370;50.132;8.626;2023-04-05T02:00:56;2.50;60.10
10644;DHT22;5370;50.132;8.626;2023-04-05T02:03:23;2.40;60.20
10644;DHT22;5370;50.132;8.626;2023-04-05T02:05:49;2.40;60.40
10644;DHT22;5370;50.132;8.626;2023-04-05T02:08:14;2.30;60.40
10644;DHT22;5370;50.132;8.626;2023-04-05T02:10:40;2.20;60.50
10644;DHT22;5370;50.132;8.626;2023-04-05T02:13:07;2.20;60.50
10644;DHT22;5370;50.132;8.626;2023-04-05T02:15:32;2.20;60.80
10644;DHT22;5370;50.132;8.626;2023-04-05T02:17:59;2.10;61.00
10644;DHT22;5370;50.132;8.626;2023-04-05T02:20:27;2.10;61.40
10644;DHT22;5370;50.132;8.626;2023-04-05T02:22:53;2.00;61.50
10644;DHT22;5370;50.132;8.626;2023-04-05T02:25:19;2.00;61.60
10644;DHT22;5370;50.132;8.626;2023-04-05T02:27:45;2.00;61.70
10644;DHT22;5370;50.132;8.626;2023-04-05T02:30:11;1.90;61.70
10644;DHT22;5370;50.132;8.626;2023-04-05T02:32:41;1.90;61.80
10644;DHT22;5370;50.132;8.626;2023-04-05T02:35:08;1.90;61.90
10644;DHT22;5370;50.132;8.626;2023-04-05T02:37:33;1.90;62.00
10644;DHT22;5370;50.132;8.626;2023-04-05T02:40:00;1.90;62.20
10644;DHT22;5370;50.132;8.626;2023-04-05T02:42:25;1.80;62.20
10644;DHT22;5370;50.132;8.626;2023-04-05T02:44:51;1.80;62.40
10644;DHT22;5370;50.132;8.626;2023-04-05T02:47:17;1.80;62.50
10644;DHT22;5370;50.132;8.626;2023-04-05T02:49:46;1.70;62.60
10644;DHT22;5370;50.132;8.626;2023-04-05T02:52:13;1.70;62.70
10644;DHT22;5370;50.132;8.626;2023-04-05T02:54:38;1.70;62.80
10644;DHT22;5370;50.132;8.626;2023-04-05T02:57:04;1.70;63.20
10644;DHT22;5370;50.132;8.626;2023-04-05T02:59:29;1.60;63.10
10644;DHT22;5370;50.132;8.626;2023-04-05T03:01:55;1.60;63.30
10644;DHT22;5370;50.132;8.626;2023-04-05T03:04:20;1.60;63.40
10644;DHT22;5370;50.132;8.626;2023-04-05T03:06:46;1.50;63.60
10644;DHT22;5370;50.132;8.626;2023-04-05T03:09:14;1.50;63.70
10644;DHT22;5370;50.132;8.626;2023-04-05T03:11:39;1.50;63.80
10644;DHT22;5370;50.132;8.626;2023-04-05T03:14:05;1.40;63.80
10644;DHT22;5370;50.132;8.626;2023-04-05T03:16:30;1.40;64.10
10644;DHT22;5370;50.132;8.626;2023-04-05T03:18:56;1.40;64.30
10644;DHT22;5370;50.132;8.626;2023-04-05T03:21:21;1.40;64.50
10644;DHT22;5370;50.132;8.626;2023-04-05T03:23:47;1.30;64.60
10644;DHT22;5370;50.132;8.626;2023-04-05T03:26:14;1.30;64.90
10644;DHT22;5370;50.132;8.626;2023-04-05T03:28:40;1.30;65.00
10644;DHT22;5370;50.132;8.626;2023-04-05T03:31:10;1.20;65.10
10644;DHT22;5370;50.132;8.626;2023-04-05T03:33:36;1.20;65.30
10644;DHT22;5370;50.132;8.626;2023-04-05T03:36:03;1.20;65.50
10644;DHT22;5370;50.132;8.626;2023-04-05T03:38:28;1.20;65.50
10644;DHT22;5370;50.132;8.626;2023-04-05T03:40:56;1.10;65.50
10644;DHT22;5370;50.132;8.626;2023-04-05T03:43:22;1.10;65.70
10644;DHT22;5370;50.132;8.626;2023-04-05T03:45:48;1.10;65.80
10644;DHT22;5370;50.132;8.626;2023-04-05T03:48:14;1.10;65.90
10644;DHT22;5370;50.132;8.626;2023-04-05T03:50:44;1.10;66.00
10644;DHT22;5370;50.132;8.626;2023-04-05T03:53:10;1.10;66.10
10644;DHT22;5370;50.132;8.626;2023-04-05T03:55:35;1.10;66.20
10644;DHT22;5370;50.132;8.626;2023-04-05T03:58:01;1.00;66.30
10644;DHT22;5370;50.132;8.626;2023-04-05T04:00:26;1.00;66.40
10644;DHT22;5370;50.132;8.626;2023-04-05T04:02:52;1.00;66.50
10644;DHT22;5370;50.132;8.626;2023-04-05T04:05:18;1.00;66.60
10644;DHT22;5370;50.132;8.626;2023-04-05T04:07:44;1.00;66.60
10644;DHT22;5370;50.132;8.626;2023-04-05T04:10:11;0.90;66.60
10644;DHT22;5370;50.132;8.626;2023-04-05T04:12:37;0.90;66.70
10644;DHT22;5370;50.132;8.626;2023-04-05T04:15:03;0.90;66.80
10644;DHT22;5370;50.132;8.626;2023-04-05T04:17:31;0.90;66.90
10644;DHT22;5370;50.132;8.626;2023-04-05T04:19:57;0.90;67.00
10644;DHT22;5370;50.132;8.626;2023-04-05T04:22:24;0.90;67.00
10644;DHT22;5370;50.132;8.626;2023-04-05T04:25:01;0.80;66.90
10644;DHT22;5370;50.132;8.626;2023-04-05T04:27:28;0.80;66.90
10644;DHT22;5370;50.132;8.626;2023-04-05T04:29:54;0.80;66.90
10644;DHT22;5370;50.132;8.626;2023-04-05T04:32:20;0.80;66.80
10644;DHT22;5370;50.132;8.626;2023-04-05T04:34:51;0.80;66.80
10644;DHT22;5370;50.132;8.626;2023-04-05T04:37:20;0.80;66.80
10644;DHT22;5370;50.132;8.626;2023-04-05T04:39:47;0.80;66.80
10644;DHT22;5370;50.132;8.626;2023-04-05T04:42:13;0.80;66.80
10644;DHT22;5370;50.132;8.626;2023-04-05T04:44:44;0.80;66.80
10644;DHT22;5370;50.132;8.626;2023-04-05T04:47:10;0.80;66.70
10644;DHT22;5370;50.132;8.626;2023-04-05T04:49:40;0.80;66.80
10644;DHT22;5370;50.132;8.626;2023-04-05T04:52:05;0.80;66.80
10644;DHT22;5370;50.132;8.626;2023-04-05T04:54:31;0.80;66.80
10644;DHT22;5370;50.132;8.626;2023-04-05T04:56:58;0.80;66.80
10644;DHT22;5370;50.132;8.626;2023-04-05T04:59:25;0.80;67.60
10644;DHT22;5370;50.132;8.626;2023-04-05T05:01:51;0.80;67.00
10644;DHT22;5370;50.132;8.626;2023-04-05T05:04:16;0.80;67.00
10644;DHT22;5370;50.132;8.626;2023-04-05T05:06:42;0.80;67.00
10644;DHT22;5370;50.132;8.626;2023-04-05T05:09:08;0.80;67.10
10644;DHT22;5370;50.132;8.626;2023-04-05T05:11:33;0.80;67.10
10644;DHT22;5370;50.132;8.626;2023-04-05T05:13:59;0.80;67.10
10644;DHT22;5370;50.132;8.626;2023-04-05T05:16:24;0.80;67.10
10644;DHT22;5370;50.132;8.626;2023-04-05T05:18:51;0.90;67.20
10644;DHT22;5370;50.132;8.626;2023-04-05T05:21:16;0.90;67.20
10644;DHT22;5370;50.132;8.626;2023-04-05T05:23:42;0.90;67.20
10644;DHT22;5370;50.132;8.626;2023-04-05T05:26:07;1.00;67.50
10644;DHT22;5370;50.132;8.626;2023-04-05T05:28:33;1.00;67.60
10644;DHT22;5370;50.132;8.626;2023-04-05T05:30:58;1.10;67.80
10644;DHT22;5370;50.132;8.626;2023-04-05T05:33:25;1.30;68.00
10644;DHT22;5370;50.132;8.626;2023-04-05T05:35:50;1.20;67.70
10644;DHT22;5370;50.132;8.626;2023-04-05T05:38:17;1.20;67.60
10644;DHT22;5370;50.132;8.626;2023-04-05T05:40:43;1.30;67.60
10644;DHT22;5370;50.132;8.626;2023-04-05T05:43:08;1.40;67.70
10644;DHT22;5370;50.132;8.626;2023-04-05T05:45:37;1.60;68.00
10644;DHT22;5370;50.132;8.626;2023-04-05T05:48:02;1.90;68.20
10644;DHT22;5370;50.132;8.626;2023-04-05T05:50:28;2.20;67.90
10644;DHT22;5370;50.132;8.626;2023-04-05T05:52:57;2.60;67.30
10644;DHT22;5370;50.132;8.626;2023-04-05T05:55:23;2.80;66.40
10644;DHT22;5370;50.132;8.626;2023-04-05T05:57:49;2.90;65.70
10644;DHT22;5370;50.132;8.626;2023-04-05T06:00:14;3.00;65.30
10644;DHT22;5370;50.132;8.626;2023-04-05T06:02:40;3.40;65.50
10644;DHT22;5370;50.132;8.626;2023-04-05T06:05:06;3.90;65.00
10644;DHT22;5370;50.132;8.626;2023-04-05T06:07:35;4.50;63.80
10644;DHT22;5370;50.132;8.626;2023-04-05T06:10:00;5.10;63.00
10644;DHT22;5370;50.132;8.626;2023-04-05T06:12:26;5.60;61.70
10644;DHT22;5370;50.132;8.626;2023-04-05T06:14:51;6.00;59.80
10644;DHT22;5370;50.132;8.626;2023-04-05T06:17:17;6.20;58.70
10644;DHT22;5370;50.132;8.626;2023-04-05T06:19:42;6.40;57.90
10644;DHT22;5370;50.132;8.626;2023-04-05T06:22:08;6.60;57.90
10644;DHT22;5370;50.132;8.626;2023-04-05T06:24:34;6.90;57.60
10644;DHT22;5370;50.132;8.626;2023-04-05T06:26:59;7.20;56.60
10644;DHT22;5370;50.132;8.626;2023-04-05T06:29:25;7.70;56.60
10644;DHT22;5370;50.132;8.626;2023-04-05T06:31:51;8.10;54.30
10644;DHT22;5370;50.132;8.626;2023-04-05T06:34:17;8.20;52.50
10644;DHT22;5370;50.132;8.626;2023-04-05T06:36:42;8.20;51.80
10644;DHT22;5370;50.132;8.626;2023-04-05T06:39:08;8.00;50.80
10644;DHT22;5370;50.132;8.626;2023-04-05T06:41:33;7.90;50.90
10644;DHT22;5370;50.132;8.626;2023-04-05T06:43:59;7.90;51.30
10644;DHT22;5370;50.132;8.626;2023-04-05T06:46:25;8.20;50.90
10644;DHT22;5370;50.132;8.626;2023-04-05T06:48:51;8.70;50.30
10644;DHT22;5370;50.132;8.626;2023-04-05T06:51:17;9.40;50.40
10644;DHT22;5370;50.132;8.626;2023-04-05T06:53:43;10.20;48.70
10644;DHT22;5370;50.132;8.626;2023-04-05T06:56:09;10.90;47.30
10644;DHT22;5370;50.132;8.626;2023-04-05T06:58:35;11.40;45.60
10644;DHT22;5370;50.132;8.626;2023-04-05T07:01:01;11.70;45.40
10644;DHT22;5370;50.132;8.626;2023-04-05T07:03:27;12.10;45.30
10644;DHT22;5370;50.132;8.626;2023-04-05T07:05:55;12.40;43.70
10644;DHT22;5370;50.132;8.626;2023-04-05T07:08:21;12.30;42.90
10644;DHT22;5370;50.132;8.626;2023-04-05T07:10:47;12.30;42.40
10644;DHT22;5370;50.132;8.626;2023-04-05T07:13:13;12.20;40.70
10644;DHT22;5370;50.132;8.626;2023-04-05T07:15:39;12.20;41.40
10644;DHT22;5370;50.132;8.626;2023-04-05T07:18:04;12.40;41.10
10644;DHT22;5370;50.132;8.626;2023-04-05T07:20:30;12.60;41.20
10644;DHT22;5370;50.132;8.626;2023-04-05T07:22:55;12.80;40.20
10644;DHT22;5370;50.132;8.626;2023-04-05T07:25:23;12.90;40.30
10644;DHT22;5370;50.132;8.626;2023-04-05T07:27:48;13.00;39.20
10644;DHT22;5370;50.132;8.626;2023-04-05T07:30:14;13.00;39.50
10644;DHT22;5370;50.132;8.626;2023-04-05T07:32:40;12.90;39.60
10644;DHT22;5370;50.132;8.626;2023-04-05T07:35:06;12.80;39.60
10644;DHT22;5370;50.132;8.626;2023-04-05T07:37:31;12.70;40.10
10644;DHT22;5370;50.132;8.626;2023-04-05T07:39:57;12.50;39.40
10644;DHT22;5370;50.132;8.626;2023-04-05T07:42:23;12.20;38.90
10644;DHT22;5370;50.132;8.626;2023-04-05T07:44:48;11.90;38.60
10644;DHT22;5370;50.132;8.626;2023-04-05T07:47:14;11.70;38.80
10644;DHT22;5370;50.132;8.626;2023-04-05T07:49:39;11.60;38.80
10644;DHT22;5370;50.132;8.626;2023-04-05T07:52:05;11.60;38.40
10644;DHT22;5370;50.132;8.626;2023-04-05T07:54:31;11.70;38.90
10644;DHT22;5370;50.132;8.626;2023-04-05T07:56:58;11.90;38.70
10644;DHT22;5370;50.132;8.626;2023-04-05T07:59:25;12.20;38.70
10644;DHT22;5370;50.132;8.626;2023-04-05T08:01:51;12.80;38.90
10644;DHT22;5370;50.132;8.626;2023-04-05T08:04:17;13.30;38.10
10644;DHT22;5370;50.132;8.626;2023-04-05T08:06:43;13.80;37.10
10644;DHT22;5370;50.132;8.626;2023-04-05T08:09:09;14.30;36.10
10644;DHT22;5370;50.132;8.626;2023-04-05T08:11:35;14.30;35.80
10644;DHT22;5370;50.132;8.626;2023-04-05T08:14:01;14.30;35.60
10644;DHT22;5370;50.132;8.626;2023-04-05T08:16:26;14.60;35.80
10644;DHT22;5370;50.132;8.626;2023-04-05T08:18:52;15.20;35.90
10644;DHT22;5370;50.132;8.626;2023-04-05T08:21:17;15.90;35.00
10644;DHT22;5370;50.132;8.626;2023-04-05T08:23:43;17.00;34.60
10644;DHT22;5370;50.132;8.626;2023-04-05T08:26:08;18.00;33.50
10644;DHT22;5370;50.132;8.626;2023-04-05T08:28:34;18.50;32.10
10644;DHT22;5370;50.132;8.626;2023-04-05T08:31:00;19.00;31.40
10644;DHT22;5370;50.132;8.626;2023-04-05T08:33:26;19.10;30.60
10644;DHT22;5370;50.132;8.626;2023-04-05T08:35:55;19.20;29.30
10644;DHT22;5370;50.132;8.626;2023-04-05T08:38:21;19.50;29.80
10644;DHT22;5370;50.132;8.626;2023-04-05T08:40:48;20.00;29.80
10644;DHT22;5370;50.132;8.626;2023-04-05T08:43:22;20.20;27.70
10644;DHT22;5370;50.132;8.626;2023-04-05T08:45:51;20.10;27.50
10644;DHT22;5370;50.132;8.626;2023-04-05T08:48:18;19.60;27.10
10644;DHT22;5370;50.132;8.626;2023-04-05T08:50:51;19.00;27.70
10644;DHT22;5370;50.132;8.626;2023-04-05T08:53:18;18.10;27.80
10644;DHT22;5370;50.132;8.626;2023-04-05T08:55:48;17.10;28.00
10644;DHT22;5370;50.132;8.626;2023-04-05T08:58:16;16.20;28.80
10644;DHT22;5370;50.132;8.626;2023-04-05T09:00:43;15.40;29.30
10644;DHT22;5370;50.132;8.626;2023-04-05T09:03:15;14.60;29.90
10644;DHT22;5370;50.132;8.626;2023-04-05T09:05:45;13.70;29.90
10644;DHT22;5370;50.132;8.626;2023-04-05T09:08:12;12.70;31.10
10644;DHT22;5370;50.132;8.626;2023-04-05T09:10:38;12.00;32.30
10644;DHT22;5370;50.132;8.626;2023-04-05T09:13:04;11.70;33.20
10644;DHT22;5370;50.132;8.626;2023-04-05T09:15:30;11.40;33.50
10644;DHT22;5370;50.132;8.626;2023-04-05T09:17:56;11.10;33.80
10644;DHT22;5370;50.132;8.626;2023-04-05T09:20:22;10.70;34.20
10644;DHT22;5370;50.132;8.626;2023-04-05T09:22:48;10.40;34.50
10644;DHT22;5370;50.132;8.626;2023-04-05T09:25:35;10.10;34.70
10644;DHT22;5370;50.132;8.626;2023-04-05T09:28:04;9.80;36.10
10644;DHT22;5370;50.132;8.626;2023-04-05T09:30:31;9.50;36.60
10644;DHT22;5370;50.132;8.626;2023-04-05T09:32:57;9.40;37.30
10644;DHT22;5370;50.132;8.626;2023-04-05T09:35:28;9.30;37.80
10644;DHT22;5370;50.132;8.626;2023-04-05T09:40:22;9.10;38.20
10644;DHT22;5370;50.132;8.626;2023-04-05T09:42:48;9.10;38.50
10644;DHT22;5370;50.132;8.626;2023-04-05T09:45:14;9.10;38.30
10644;DHT22;5370;50.132;8.626;2023-04-05T09:47:40;9.00;38.20
10644;DHT22;5370;50.132;8.626;2023-04-05T09:52:42;8.90;37.80
10644;DHT22;5370;50.132;8.626;2023-04-05T09:55:09;9.00;38.10
10644;DHT22;5370;50.132;8.626;2023-04-05T09:57:41;8.90;37.40
10644;DHT22;5370;50.132;8.626;2023-04-05T10:00:21;8.90;37.60
10644;DHT22;5370;50.132;8.626;2023-04-05T10:02:52;8.90;37.70
10644;DHT22;5370;50.132;8.626;2023-04-05T10:05:18;8.90;37.50
10644;DHT22;5370;50.132;8.626;2023-04-05T10:07:44;8.90;37.60
10644;DHT22;5370;50.132;8.626;2023-04-05T10:10:11;8.90;37.50
10644;DHT22;5370;50.132;8.626;2023-04-05T10:12:38;8.90;37.60
10644;DHT22;5370;50.132;8.626;2023-04-05T10:15:06;8.80;37.80
10644;DHT22;5370;50.132;8.626;2023-04-05T10:17:50;8.90;37.90
10644;DHT22;5370;50.132;8.626;2023-04-05T10:20:19;8.90;37.40
10644;DHT22;5370;50.132;8.626;2023-04-05T10:28:07;9.20;37.60
10644;DHT22;5370;50.132;8.626;2023-04-05T10:30:38;9.20;37.40
10644;DHT22;5370;50.132;8.626;2023-04-05T10:33:20;9.30;37.40
10644;DHT22;5370;50.132;8.626;2023-04-05T10:36:05;9.40;37.70
10644;DHT22;5370;50.132;8.626;2023-04-05T10:38:58;9.30;37.30
10644;DHT22;5370;50.132;8.626;2023-04-05T10:41:25;9.40;37.50
10644;DHT22;5370;50.132;8.626;2023-04-05T10:43:52;9.40;37.80
10644;DHT22;5370;50.132;8.626;2023-04-05T10:46:21;9.50;38.00
10644;DHT22;5370;50.132;8.626;2023-04-05T10:51:31;9.70;38.60
10644;DHT22;5370;50.132;8.626;2023-04-05T10:53:57;9.70;37.70
10644;DHT22;5370;50.132;8.626;2023-04-05T10:56:24;9.80;37.60
10644;DHT22;5370;50.132;8.626;2023-04-05T10:58:51;9.90;37.90
10644;DHT22;5370;50.132;8.626;2023-04-05T11:01:18;9.90;37.70
10644;DHT22;5370;50.132;8.626;2023-04-05T11:03:48;10.00;36.80
10644;DHT22;5370;50.132;8.626;2023-04-05T11:06:17;10.20;36.40
10644;DHT22;5370;50.132;8.626;2023-04-05T11:08:44;10.30;35.90
10644;DHT22;5370;50.132;8.626;2023-04-05T11:11:12;10.40;35.40
10644;DHT22;5370;50.132;8.626;2023-04-05T11:14:19;10.50;34.00
10644;DHT22;5370;50.132;8.626;2023-04-05T11:16:49;10.50;33.50
10644;DHT22;5370;50.132;8.626;2023-04-05T11:19:18;10.50;32.90
10644;DHT22;5370;50.132;8.626;2023-04-05T11:21:45;10.40;32.70
10644;DHT22;5370;50.132;8.626;2023-04-05T11:24:12;10.40;33.00
10644;DHT22;5370;50.132;8.626;2023-04-05T11:29:08;10.70;34.00
10644;DHT22;5370;50.132;8.626;2023-04-05T11:31:34;11.00;33.80
10644;DHT22;5370;50.132;8.626;2023-04-05T11:34:03;11.10;32.10
10644;DHT22;5370;50.132;8.626;2023-04-05T11:44:19;11.00;30.60
10644;DHT22;5370;50.132;8.626;2023-04-05T11:46:45;11.10;31.00
10644;DHT22;5370;50.132;8.626;2023-04-05T11:49:14;11.20;30.20
10644;DHT22;5370;50.132;8.626;2023-04-05T11:51:40;11.30;29.80
10644;DHT22;5370;50.132;8.626;2023-04-05T11:54:13;11.20;29.80
10644;DHT22;5370;50.132;8.626;2023-04-05T11:56:39;11.20;30.10
10644;DHT22;5370;50.132;8.626;2023-04-05T11:59:05;11.20;30.00
10644;DHT22;5370;50.132;8.626;2023-04-05T12:01:31;11.30;30.10
10644;DHT22;5370;50.132;8.626;2023-04-05T12:03:57;11.50;30.30
10644;DHT22;5370;50.132;8.626;2023-04-05T12:06:24;11.60;30.00
10644;DHT22;5370;50.132;8.626;2023-04-05T12:08:50;11.70;29.60
10644;DHT22;5370;50.132;8.626;2023-04-05T12:11:27;11.70;29.70
10644;DHT22;5370;50.132;8.626;2023-04-05T12:13:56;11.80;30.10
10644;DHT22;5370;50.132;8.626;2023-04-05T12:16:23;11.80;29.60
10644;DHT22;5370;50.132;8.626;2023-04-05T12:18:53;11.80;29.40
10644;DHT22;5370;50.132;8.626;2023-04-05T12:21:19;11.80;29.40
10644;DHT22;5370;50.132;8.626;2023-04-05T12:23:45;11.70;28.80
10644;DHT22;5370;50.132;8.626;2023-04-05T12:26:11;11.70;28.80
10644;DHT22;5370;50.132;8.626;2023-04-05T12:28:58;11.70;28.70
10644;DHT22;5370;50.132;8.626;2023-04-05T12:31:42;11.80;28.80
10644;DHT22;5370;50.132;8.626;2023-04-05T12:34:16;12.00;29.00
10644;DHT22;5370;50.132;8.626;2023-04-05T12:36:47;12.20;29.00
10644;DHT22;5370;50.132;8.626;2023-04-05T12:39:15;12.20;28.60
10644;DHT22;5370;50.132;8.626;2023-04-05T12:41:41;12.30;28.80
10644;DHT22;5370;50.132;8.626;2023-04-05T12:44:37;12.30;27.60
10644;DHT22;5370;50.132;8.626;2023-04-05T12:47:02;12.20;27.60
10644;DHT22;5370;50.132;8.626;2023-04-05T12:49:36;12.20;27.30
10644;DHT22;5370;50.132;8.626;2023-04-05T12:52:01;12.20;27.10
10644;DHT22;5370;50.132;8.626;2023-04-05T12:54:27;12.10;26.70
10644;DHT22;5370;50.132;8.626;2023-04-05T12:56:53;12.10;26.20
10644;DHT22;5370;50.132;8.626;2023-04-05T12:59:19;12.00;26.30
10644;DHT22;5370;50.132;8.626;2023-04-05T13:01:45;12.00;27.30
10644;DHT22;5370;50.132;8.626;2023-04-05T13:04:11;12.00;26.10
10644;DHT22;5370;50.132;8.626;2023-04-05T13:06:36;12.00;26.20
10644;DHT22;5370;50.132;8.626;2023-04-05T13:09:02;12.00;25.80
10644;DHT22;5370;50.132;8.626;2023-04-05T13:11:28;12.00;25.60
10644;DHT22;5370;50.132;8.626;2023-04-05T13:13:53;12.00;26.00
10644;DHT22;5370;50.132;8.626;2023-04-05T13:16:19;12.20;26.20
10644;DHT22;5370;50.132;8.626;2023-04-05T13:18:45;12.30;26.10
10644;DHT22;5370;50.132;8.626;2023-04-05T13:21:11;12.40;26.40
10644;DHT22;5370;50.132;8.626;2023-04-05T13:23:38;12.50;26.00
10644;DHT22;5370;50.132;8.626;2023-04-05T13:26:05;12.50;25.20
10644;DHT22;5370;50.132;8.626;2023-04-05T13:28:31;12.50;25.30
10644;DHT22;5370;50.132;8.626;2023-04-05T13:30:57;12.50;25.30
10644;DHT22;5370;50.132;8.626;2023-04-05T13:33:22;12.50;25.50
10644;DHT22;5370;50.132;8.626;2023-04-05T13:35:48;12.60;26.00
10644;DHT22;5370;50.132;8.626;2023-04-05T13:38:14;12.80;26.40
10644;DHT22;5370;50.132;8.626;2023-04-05T13:40:40;13.00;26.40
10644;DHT22;5370;50.132;8.626;2023-04-05T13:43:06;13.20;26.60
10644;DHT22;5370;50.132;8.626;2023-04-05T13:45:32;13.30;26.80
10644;DHT22;5370;50.132;8.626;2023-04-05T13:47:58;13.50;27.10
10644;DHT22;5370;50.132;8.626;2023-04-05T13:50:24;13.70;27.10
10644;DHT22;5370;50.132;8.626;2023-04-05T13:52:50;13.80;26.30
10644;DHT22;5370;50.132;8.626;2023-04-05T13:55:16;13.60;25.30
10644;DHT22;5370;50.132;8.626;2023-04-05T13:57:41;13.50;25.50
10644;DHT22;5370;50.132;8.626;2023-04-05T14:00:08;13.40;25.60
10644;DHT22;5370;50.132;8.626;2023-04-05T14:02:33;13.30;25.90
10644;DHT22;5370;50.132;8.626;2023-04-05T14:04:59;13.30;25.80
10644;DHT22;5370;50.132;8.626;2023-04-05T14:07:26;13.20;25.40
10644;DHT22;5370;50.132;8.626;2023-04-05T14:09:51;13.20;25.80
10644;DHT22;5370;50.132;8.626;2023-04-05T14:12:17;13.20;25.90
10644;DHT22;5370;50.132;8.626;2023-04-05T14:14:43;13.30;26.90
10644;DHT22;5370;50.132;8.626;2023-04-05T14:17:08;13.40;26.80
10644;DHT22;5370;50.132;8.626;2023-04-05T14:19:37;13.50;26.80
10644;DHT22;5370;50.132;8.626;2023-04-05T14:22:02;13.60;26.80
10644;DHT22;5370;50.132;8.626;2023-04-05T14:24:28;13.70;27.30
10644;DHT22;5370;50.132;8.626;2023-04-05T14:26:54;13.90;27.40
10644;DHT22;5370;50.132;8.626;2023-04-05T14:29:21;14.10;27.20
10644;DHT22;5370;50.132;8.626;2023-04-05T14:31:47;14.10;26.80
10644;DHT22;5370;50.132;8.626;2023-04-05T14:34:13;14.20;26.70
10644;DHT22;5370;50.132;8.626;2023-04-05T14:36:39;14.20;26.80
10644;DHT22;5370;50.132;8.626;2023-04-05T14:39:05;14.10;27.20
10644;DHT22;5370;50.132;8.626;2023-04-05T14:41:30;14.00;26.60
10644;DHT22;5370;50.132;8.626;2023-04-05T14:43:56;13.90;27.00
10644;DHT22;5370;50.132;8.626;2023-04-05T14:46:22;13.80;26.70
10644;DHT22;5370;50.132;8.626;2023-04-05T14:48:47;13.70;26.50
10644;DHT22;5370;50.132;8.626;2023-04-05T14:51:13;13.60;26.70
10644;DHT22;5370;50.132;8.626;2023-04-05T14:53:39;13.60;27.00
10644;DHT22;5370;50.132;8.626;2023-04-05T14:56:06;13.70;27.30
10644;DHT22;5370;50.132;8.626;2023-04-05T14:58:34;13.70;27.10
10644;DHT22;5370;50.132;8.626;2023-04-05T15:00:59;13.60;27.00
10644;DHT22;5370;50.132;8.626;2023-04-05T15:03:25;13.50;27.20
10644;DHT22;5370;50.132;8.626;2023-04-05T15:05:51;13.50;27.50
10644;DHT22;5370;50.132;8.626;2023-04-05T15:08:17;13.40;27.30
10644;DHT22;5370;50.132;8.626;2023-04-05T15:10:42;13.30;27.40
10644;DHT22;5370;50.132;8.626;2023-04-05T15:13:08;13.40;27.60
10644;DHT22;5370;50.132;8.626;2023-04-05T15:15:35;13.50;27.80
10644;DHT22;5370;50.132;8.626;2023-04-05T15:18:01;13.60;28.20
10644;DHT22;5370;50.132;8.626;2023-04-05T15:20:27;13.70;28.30
10644;DHT22;5370;50.132;8.626;2023-04-05T15:22:52;13.80;27.80
10644;DHT22;5370;50.132;8.626;2023-04-05T15:25:18;13.70;27.60
10644;DHT22;5370;50.132;8.626;2023-04-05T15:27:44;13.50;27.70
10644;DHT22;5370;50.132;8.626;2023-04-05T15:30:10;13.30;27.70
10644;DHT22;5370;50.132;8.626;2023-04-05T15:32:35;13.20;27.80
10644;DHT22;5370;50.132;8.626;2023-04-05T15:35:02;13.20;28.00
10644;DHT22;5370;50.132;8.626;2023-04-05T15:37:28;13.20;28.10
10644;DHT22;5370;50.132;8.626;2023-04-05T15:39:53;13.10;28.00
10644;DHT22;5370;50.132;8.626;2023-04-05T15:42:20;12.90;27.90
10644;DHT22;5370;50.132;8.626;2023-04-05T15:44:49;12.80;28.10
10644;DHT22;5370;50.132;8.626;2023-04-05T15:47:15;12.80;28.30
10644;DHT22;5370;50.132;8.626;2023-04-05T15:49:40;12.80;28.40
10644;DHT22;5370;50.132;8.626;2023-04-05T15:52:08;12.80;28.50
10644;DHT22;5370;50.132;8.626;2023-04-05T15:54:35;12.80;28.60
10644;DHT22;5370;50.132;8.626;2023-04-05T15:57:01;12.80;28.40
10644;DHT22;5370;50.132;8.626;2023-04-05T15:59:27;12.80;28.60
10644;DHT22;5370;50.132;8.626;2023-04-05T16:01:52;12.90;28.80
10644;DHT22;5370;50.132;8.626;2023-04-05T16:04:18;12.90;28.70
10644;DHT22;5370;50.132;8.626;2023-04-05T16:06:44;12.90;28.70
10644;DHT22;5370;50.132;8.626;2023-04-05T16:09:10;12.90;28.60
10644;DHT22;5370;50.132;8.626;2023-04-05T16:11:35;12.90;28.60
10644;DHT22;5370;50.132;8.626;2023-04-05T16:14:02;12.90;28.70
10644;DHT22;5370;50.132;8.626;2023-04-05T16:16:27;12.80;28.60
10644;DHT22;5370;50.132;8.626;2023-04-05T16:18:53;12.60;28.60
10644;DHT22;5370;50.132;8.626;2023-04-05T16:21:19;12.60;28.80
10644;DHT22;5370;50.132;8.626;2023-04-05T16:23:44;12.40;28.80
10644;DHT22;5370;50.132;8.626;2023-04-05T16:26:11;12.30;29.00
10644;DHT22;5370;50.132;8.626;2023-04-05T16:28:38;12.20;29.20